Korsakov, Russia
Current Conditions -  °F | °C
As of 4:00 AM on Friday 28 Nov 2014 (Local Time) from UHSS Reporting Station
Clear Clear  
Wind Chill: 24°   Ceiling: Unl
Heat Index: 32°   Visibility: 6mi
Dew Point: 23°   Wind: 9mph
Humidity: 69%   Direction: 310°NW
Pressure: 30.09"   Gusts: NA
Location:  46.64°N, 142.78°E
Report Text: UHSS 271700Z 31004MPS 9999 NSC M00/M05 Q1019 RMK QFE763/1017
Loading
Personal Weather Stations






























Interactive Weather Map New forecast layout! Learn more

10-Day Weather Forecast

Advertisements
Track Severe Weather on mobile